Time;durP1;ratioP1;P1;durP2;ratioP2;P2;SDS_P1;SDS_P2;PMS_P1;PMS_P2;Temp;Humidity;BMP_temperature;BMP_pressure;BME280_temperature;BME280_humidity;BME280_pressure;Samples;Min_cycle;Max_cycle;Signal;HPM_P1;HPM_P2
2023/05/24 00:00:16;;;;;;;;;;;17.10;59.90;;;12.80;100.00;95606.41;5012842;28;19909;-47
2023/05/24 00:02:42;;;;;;;;;;;17.10;60.00;;;12.77;100.00;95606.16;5007970;28;19918;-49
2023/05/24 00:05:09;;;;;;;;;;;17.00;60.00;;;12.78;100.00;95602.41;5004237;28;19932;-49
2023/05/24 00:07:36;;;;;;;;;;;17.00;60.10;;;12.72;100.00;95602.47;5011615;28;19920;-49
2023/05/24 00:10:06;;;;;;;;;;;16.90;60.10;;;12.71;100.00;95602.72;5011494;28;19909;-50
2023/05/24 00:12:32;;;;;;;;;;;16.90;60.10;;;12.68;100.00;95598.72;5012494;28;19936;-51
2023/05/24 00:14:58;;;;;;;;;;;16.90;60.20;;;12.70;100.00;95596.59;5021157;28;19949;-47
2023/05/24 00:17:24;;;;;;;;;;;16.90;60.20;;;12.67;100.00;95601.69;5010511;28;19935;-51
2023/05/24 00:19:51;;;;;;;;;;;16.90;61.00;;;12.60;100.00;95607.34;5012546;28;19913;-48
2023/05/24 00:22:19;;;;;;;;;;;16.80;60.20;;;12.59;100.00;95596.91;5010716;28;20444;-47
2023/05/24 00:24:46;;;;;;;;;;;16.80;60.30;;;12.53;100.00;95603.34;5012626;28;19944;-48
2023/05/24 00:27:14;;;;;;;;;;;16.80;60.30;;;12.47;100.00;95598.06;5010246;28;19913;-50
2023/05/24 00:29:40;;;;;;;;;;;16.80;60.40;;;12.41;100.00;95606.34;5012264;28;19917;-47
2023/05/24 00:32:06;;;;;;;;;;;16.70;60.40;;;12.39;100.00;95603.19;5012317;28;19909;-51
2023/05/24 00:34:31;;;;;;;;;;;16.70;60.40;;;12.32;100.00;95594.69;5006482;28;19913;-49
2023/05/24 00:36:57;;;;;;;;;;;16.60;60.40;;;12.29;100.00;95593.34;5011617;28;20046;-48
2023/05/24 00:39:23;;;;;;;;;;;16.60;60.50;;;12.25;100.00;95589.59;5003105;28;19924;-47
2023/05/24 00:41:49;;;;;;;;;;;16.50;60.50;;;12.19;100.00;95588.03;5010872;28;19916;-49
2023/05/24 00:44:14;;;;;;;;;;;16.50;60.60;;;12.17;100.00;95582.19;5012035;28;19909;-49
2023/05/24 00:46:41;;;;;;;;;;;16.50;60.70;;;12.15;100.00;95582.44;5010697;28;19909;-46
2023/05/24 00:49:07;;;;;;;;;;;16.40;60.70;;;12.12;100.00;95588.34;5010986;28;19916;-48
2023/05/24 00:51:35;;;;;;;;;;;16.40;60.80;;;12.04;100.00;95589.72;5013954;28;19909;-47
2023/05/24 00:54:01;;;;;;;;;;;16.30;60.80;;;12.00;100.00;95583.34;5004886;28;19920;-46
2023/05/24 00:56:27;;;;;;;;;;;16.30;61.60;;;12.02;100.00;95585.72;5009743;28;20364;-46
2023/05/24 00:58:54;;;;;;;;;;;16.30;60.90;;;12.08;100.00;95587.28;5010526;28;19916;-47
2023/05/24 01:01:24;;;;;;;;;;;16.30;61.00;;;12.04;100.00;95587.03;5027072;28;20386;-46
2023/05/24 01:03:52;;;;;;;;;;;16.20;61.10;;;12.06;100.00;95586.75;5022526;28;19912;-49
2023/05/24 01:06:19;;;;;;;;;;;16.20;61.00;;;11.99;100.00;95583.59;5010197;28;19909;-52
2023/05/24 01:09:06;;;;;;;;;;;16.20;61.10;;;11.93;100.00;95587.34;5007652;28;19971;-47
2023/05/24 01:12:00;;;;;;;;;;;16.20;61.10;;;11.87;100.00;95583.88;5011835;28;20283;-49
2023/05/24 01:14:40;;;;;;;;;;;16.10;61.10;;;11.87;100.00;95577.75;4998435;28;19909;-46
2023/05/24 01:17:26;;;;;;;;;;;16.10;61.20;;;11.86;100.00;95576.97;5007731;28;19917;-47
2023/05/24 01:20:07;;;;;;;;;;;16.10;61.20;;;11.89;100.00;95583.63;5011747;28;19992;-47
2023/05/24 01:22:45;;;;;;;;;;;16.10;61.30;;;11.89;100.00;95576.41;4998794;28;19962;-47
2023/05/24 01:25:58;;;;;;;;;;;16.00;61.30;;;11.90;100.00;95579.88;5026729;28;19909;-46
2023/05/24 01:28:27;;;;;;;;;;;16.10;61.40;;;11.84;100.00;95578.28;5009995;28;20007;-50
2023/05/24 01:30:54;;;;;;;;;;;16.00;61.40;;;11.78;100.00;95577.47;5026454;28;20015;-48
2023/05/24 01:33:21;;;;;;;;;;;16.00;61.40;;;11.77;100.00;95578.56;5021043;28;19909;-46
2023/05/24 01:35:47;;;;;;;;;;;16.00;61.40;;;11.76;100.00;95577.78;5026414;28;20441;-47
2023/05/24 01:38:14;;;;;;;;;;;16.00;61.50;;;11.71;100.00;95587.66;5010990;28;19952;-46
2023/05/24 01:40:40;;;;;;;;;;;16.00;61.50;;;11.70;100.00;95572.72;5010457;28;19909;-46
2023/05/24 01:43:34;;;;;;;;;;;16.00;61.60;;;11.70;100.00;95576.19;5026602;28;20334;-46
2023/05/24 01:46:18;;;;;;;;;;;16.00;61.60;;;11.70;100.00;95581.53;5012131;28;19917;-46
2023/05/24 01:48:59;;;;;;;;;;;15.90;61.70;;;11.75;100.00;95578.03;5020553;28;19958;-46
2023/05/24 01:51:37;;;;;;;;;;;15.90;61.90;;;11.71;100.00;95582.31;5020924;28;19913;-49
2023/05/24 01:54:06;;;;;;;;;;;15.90;61.80;;;11.72;100.00;95581.22;5004114;28;19909;-48
2023/05/24 01:56:34;;;;;;;;;;;15.90;61.90;;;11.74;100.00;95585.25;5010312;28;19913;-49
2023/05/24 01:59:02;;;;;;;;;;;15.90;61.80;;;11.73;100.00;95578.31;5032592;28;19916;-48
2023/05/24 02:01:30;;;;;;;;;;;15.90;61.80;;;11.73;100.00;95577.53;5026263;28;20318;-47
2023/05/24 02:03:56;;;;;;;;;;;15.90;62.20;;;11.70;100.00;95575.41;5025078;28;19958;-46
2023/05/24 02:06:22;;;;;;;;;;;15.90;61.90;;;11.62;100.00;95575.94;5025805;28;19909;-47
2023/05/24 02:08:47;;;;;;;;;;;15.90;61.90;;;11.59;100.00;95574.59;5006791;28;19954;-47
2023/05/24 02:11:13;;;;;;;;;;;15.90;61.90;;;11.57;100.00;95572.22;5011178;28;20000;-47
2023/05/24 02:13:39;;;;;;;;;;;15.90;61.90;;;11.54;100.00;95566.63;5011073;28;20351;-47
2023/05/24 02:16:05;;;;;;;;;;;15.80;61.90;;;11.53;100.00;95563.16;5002754;28;19909;-49
2023/05/24 02:18:33;;;;;;;;;;;15.80;62.00;;;11.53;100.00;95570.34;5010690;28;19924;-52
2023/05/24 02:21:01;;;;;;;;;;;15.80;62.10;;;11.48;100.00;95567.72;5004528;28;19953;-45
2023/05/24 02:23:27;;;;;;;;;;;15.70;62.10;;;11.43;100.00;95576.50;5005216;28;19920;-51
2023/05/24 02:25:53;;;;;;;;;;;15.70;62.20;;;11.39;100.00;95572.78;5010678;28;19948;-50
2023/05/24 02:28:18;;;;;;;;;;;15.70;62.20;;;11.33;100.00;95566.66;5010165;28;19940;-46
2023/05/24 02:30:44;;;;;;;;;;;15.70;62.30;;;11.37;100.00;95569.56;5013819;28;19916;-47
2023/05/24 02:33:11;;;;;;;;;;;15.60;62.30;;;11.36;100.00;95568.00;5013818;28;19909;-47
2023/05/24 02:35:36;;;;;;;;;;;15.60;62.40;;;11.35;100.00;95567.19;5014157;28;20307;-46
2023/05/24 02:38:05;;;;;;;;;;;15.60;62.50;;;11.30;100.00;95571.72;5031270;23;20131;-46
2023/05/24 02:40:31;;;;;;;;;;;15.60;62.60;;;11.34;100.00;95580.78;5032784;28;20354;-49
2023/05/24 02:42:57;;;;;;;;;;;15.60;62.60;;;11.35;100.00;95571.75;5024690;28;19928;-50
2023/05/24 02:45:23;;;;;;;;;;;15.60;62.70;;;11.30;100.00;95569.06;5050341;28;19909;-46
2023/05/24 02:47:48;;;;;;;;;;;15.50;62.70;;;11.31;100.00;95568.00;5033135;28;20329;-46
2023/05/24 02:50:14;;;;;;;;;;;15.50;62.70;;;11.27;100.00;95558.94;5015492;28;20363;-46
2023/05/24 02:52:40;;;;;;;;;;;15.50;62.80;;;11.24;100.00;95567.47;5031328;28;19962;-46
2023/05/24 02:55:07;;;;;;;;;;;15.50;62.90;;;11.29;100.00;95564.81;5019706;28;19915;-47
2023/05/24 02:57:33;;;;;;;;;;;15.50;62.90;;;11.28;100.00;95568.53;5035183;28;19959;-46
2023/05/24 02:59:58;;;;;;;;;;;15.50;63.00;;;11.31;100.00;95566.16;5015052;28;19912;-46
2023/05/24 03:02:27;;;;;;;;;;;15.50;63.00;;;11.31;100.00;95568.81;5014050;28;19992;-46
2023/05/24 03:04:53;;;;;;;;;;;15.50;63.00;;;11.33;100.00;95571.19;5014669;28;19909;-46
2023/05/24 03:07:19;;;;;;;;;;;15.50;63.10;;;11.28;100.00;95571.19;5028964;28;20337;-48
2023/05/24 03:09:45;;;;;;;;;;;15.50;63.10;;;11.29;100.00;95575.47;5030130;28;19908;-47
2023/05/24 03:12:11;;;;;;;;;;;15.50;63.10;;;11.26;100.00;95574.13;5034183;28;19912;-48
2023/05/24 03:14:37;;;;;;;;;;;15.50;63.10;;;11.28;100.00;95576.53;5033443;28;19916;-47
2023/05/24 03:17:03;;;;;;;;;;;15.50;63.10;;;11.31;100.00;95573.31;5020981;28;19912;-50
2023/05/24 03:19:29;;;;;;;;;;;15.50;63.20;;;11.26;100.00;95574.13;5049747;28;19908;-47
2023/05/24 03:21:55;;;;;;;;;;;15.50;63.20;;;11.28;100.00;95572.00;5023722;28;19999;-48
2023/05/24 03:24:20;;;;;;;;;;;15.50;63.20;;;11.30;100.00;95571.72;5034024;28;20015;-48
2023/05/24 03:26:46;;;;;;;;;;;15.50;63.20;;;11.27;100.00;95574.94;5031571;28;20014;-49
2023/05/24 03:29:12;;;;;;;;;;;15.50;63.20;;;11.27;100.00;95572.28;5022130;28;19909;-46
2023/05/24 03:31:38;;;;;;;;;;;15.50;63.20;;;11.29;100.00;95576.28;5034125;28;19909;-48
2023/05/24 03:34:04;;;;;;;;;;;15.50;63.20;;;11.27;100.00;95573.06;5024669;28;19909;-47
2023/05/24 03:36:29;;;;;;;;;;;15.50;63.20;;;11.27;100.00;95572.28;5028411;28;19960;-46
2023/05/24 03:38:57;;;;;;;;;;;15.50;63.30;;;11.25;100.00;95577.88;5032048;28;19928;-47
2023/05/24 03:41:22;;;;;;;;;;;15.50;63.30;;;11.27;100.00;95580.28;5032461;28;20020;-46
2023/05/24 03:43:48;;;;;;;;;;;15.50;63.40;;;11.24;100.00;95575.47;5034092;28;20004;-47
2023/05/24 03:46:14;;;;;;;;;;;15.50;63.50;;;11.21;100.00;95578.69;5032717;28;19908;-46
2023/05/24 03:48:40;;;;;;;;;;;15.50;63.50;;;11.17;100.00;95581.09;5033731;28;19909;-46
2023/05/24 03:51:05;;;;;;;;;;;15.50;63.60;;;11.15;100.00;95583.19;5028770;28;20386;-46
2023/05/24 03:53:31;;;;;;;;;;;15.50;63.60;;;11.11;100.00;95579.47;5020191;28;20298;-52
2023/05/24 03:55:57;;;;;;;;;;;15.40;63.60;;;11.13;100.00;95576.56;5013861;28;19913;-53
2023/05/24 03:58:22;;;;;;;;;;;15.40;63.60;;;11.16;100.00;95573.38;5020128;28;19912;-47
2023/05/24 04:00:48;;;;;;;;;;;15.40;63.70;;;11.18;100.00;95569.34;5013602;28;20008;-49
2023/05/24 04:03:14;;;;;;;;;;;15.40;63.70;;;11.17;100.00;95575.75;5018602;28;19959;-48
2023/05/24 04:05:40;;;;;;;;;;;15.40;63.80;;;11.14;100.00;95572.81;5032903;28;20000;-49
2023/05/24 04:08:05;;;;;;;;;;;15.40;63.80;;;11.16;100.00;95579.50;5013617;28;19916;-49
2023/05/24 04:10:31;;;;;;;;;;;15.40;63.90;;;11.13;100.00;95572.03;5016207;28;20299;-50
2023/05/24 04:12:57;;;;;;;;;;;15.40;63.80;;;11.16;100.00;95568.03;5024147;28;19915;-52
2023/05/24 04:15:23;;;;;;;;;;;15.40;64.00;;;11.17;100.00;95566.94;5025943;28;20042;-47
2023/05/24 04:17:53;;;;;;;;;;;15.40;64.00;;;11.20;100.00;95575.22;5013250;28;19999;-48
2023/05/24 04:20:24;;;;;;;;;;;15.40;64.00;;;11.20;100.00;95572.53;5013724;28;19917;-46
2023/05/24 04:22:50;;;;;;;;;;;15.40;64.00;;;11.20;100.00;95580.53;5021483;28;19920;-49
2023/05/24 04:25:16;;;;;;;;;;;15.40;64.10;;;11.19;100.00;95580.78;5028599;28;19996;-49
2023/05/24 04:27:43;;;;;;;;;;;15.50;64.10;;;11.23;100.00;95577.34;5013059;28;20023;-48
2023/05/24 04:30:10;;;;;;;;;;;15.50;64.10;;;11.26;100.00;95574.13;5028399;28;19909;-49
2023/05/24 04:32:36;;;;;;;;;;;15.50;64.10;;;11.28;100.00;95579.19;5020916;28;19923;-47
2023/05/24 04:35:03;;;;;;;;;;;15.50;64.10;;;11.27;100.00;95577.59;5016334;28;20372;-47
2023/05/24 04:37:30;;;;;;;;;;;15.50;64.00;;;11.27;100.00;95582.94;5012924;28;19909;-47
2023/05/24 04:39:56;;;;;;;;;;;15.50;64.00;;;11.32;100.00;95590.94;5028075;28;19917;-48
2023/05/24 04:42:22;;;;;;;;;;;15.60;64.00;;;11.33;100.00;95585.31;5017096;28;20047;-47
2023/05/24 04:44:48;;;;;;;;;;;15.60;64.10;;;11.37;100.00;95582.13;5014458;28;20434;-48
2023/05/24 04:47:14;;;;;;;;;;;15.60;64.00;;;11.32;100.00;95590.94;5017150;28;19916;-49
2023/05/24 04:49:39;;;;;;;;;;;15.60;64.00;;;11.34;100.00;95578.13;5012787;28;19909;-51
2023/05/24 04:52:06;;;;;;;;;;;15.60;63.90;;;11.39;100.00;95585.31;5020080;28;20307;-47
2023/05/24 04:54:32;;;;;;;;;;;15.70;64.00;;;11.35;100.00;95577.88;5013103;28;20363;-52
2023/05/24 04:56:58;;;;;;;;;;;15.70;64.00;;;11.38;100.00;95579.19;5012253;28;19920;-50
2023/05/24 04:59:24;;;;;;;;;;;15.70;64.00;;;11.40;100.00;95592.25;5012712;28;19909;-49
2023/05/24 05:01:50;;;;;;;;;;;15.80;64.80;;;11.42;100.00;95592.78;5012414;28;19909;-49
2023/05/24 05:04:15;;;;;;;;;;;15.80;64.00;;;11.46;100.00;95594.63;5017593;28;19923;-48
2023/05/24 05:06:43;;;;;;;;;;;15.80;64.00;;;11.49;100.00;95596.75;5012375;28;19917;-47
2023/05/24 05:09:11;;;;;;;;;;;15.80;64.00;;;11.47;100.00;95604.25;5012314;28;19909;-48
2023/05/24 05:11:38;;;;;;;;;;;15.80;64.00;;;11.48;100.00;95603.19;5012497;28;20339;-47
2023/05/24 05:14:05;;;;;;;;;;;15.80;64.00;;;11.46;100.00;95599.19;5012423;28;20264;-47
2023/05/24 05:16:31;;;;;;;;;;;15.80;64.00;;;11.52;100.00;95606.09;5011737;28;19916;-48
2023/05/24 05:18:57;;;;;;;;;;;15.90;64.00;;;11.50;100.00;95608.22;5012236;28;19915;-47
2023/05/24 05:21:23;;;;;;;;;;;15.90;64.00;;;11.49;100.00;95604.78;5011969;28;19909;-46
2023/05/24 05:23:49;;;;;;;;;;;15.90;64.00;;;11.46;100.00;95612.50;5020077;28;19948;-47
2023/05/24 05:26:14;;;;;;;;;;;15.90;64.00;;;11.50;100.00;95613.56;5012221;28;19909;-47
2023/05/24 05:28:40;;;;;;;;;;;16.00;64.10;;;11.48;100.00;95613.84;5019399;28;20004;-47
2023/05/24 05:31:06;;;;;;;;;;;15.90;64.00;;;11.57;100.00;95614.09;5011947;28;19916;-49
2023/05/24 05:33:32;;;;;;;;;;;16.00;64.10;;;11.53;100.00;95623.69;5021024;28;20378;-49
2023/05/24 05:35:58;;;;;;;;;;;16.00;64.00;;;11.56;100.00;95621.31;5012052;28;20364;-50
2023/05/24 05:38:24;;;;;;;;;;;16.00;64.00;;;11.54;100.00;95617.31;5015280;28;20011;-51
2023/05/24 05:40:50;;;;;;;;;;;15.90;64.00;;;11.48;100.00;95618.38;5028171;28;19909;-48
2023/05/24 05:43:15;;;;;;;;;;;16.00;64.00;;;11.53;100.00;95615.69;5011854;28;19963;-49
2023/05/24 05:45:41;;;;;;;;;;;15.90;64.00;;;11.52;100.00;95620.25;5018146;28;19909;-48
2023/05/24 05:48:07;;;;;;;;;;;16.00;64.00;;;11.55;100.00;95618.91;5011894;28;19909;-49
2023/05/24 05:50:33;;;;;;;;;;;16.00;64.00;;;11.61;100.00;95619.69;5012313;28;20276;-50
2023/05/24 05:52:58;;;;;;;;;;;16.00;64.00;;;11.58;100.00;95621.81;5022550;28;19909;-50
2023/05/24 05:55:24;;;;;;;;;;;16.00;64.00;;;11.63;100.00;95625.56;5011937;28;20371;-50
2023/05/24 05:57:50;;;;;;;;;;;16.00;63.90;;;11.58;100.00;95624.50;5021480;28;19912;-50
2023/05/24 06:00:16;;;;;;;;;;;16.10;64.00;;;11.62;100.00;95632.75;5024599;28;19917;-47
2023/05/24 06:02:42;;;;;;;;;;;16.10;63.90;;;11.61;100.00;95625.03;5016456;28;19916;-46
2023/05/24 06:05:08;;;;;;;;;;;16.10;63.90;;;11.66;100.00;95625.00;5016781;28;19909;-47
2023/05/24 06:07:36;;;;;;;;;;;16.10;63.80;;;11.56;100.00;95626.66;5015870;28;19931;-48
2023/05/24 06:10:02;;;;;;;;;;;16.10;63.80;;;11.52;100.00;95625.56;5025061;28;19939;-46
2023/05/24 06:12:28;;;;;;;;;;;16.10;63.80;;;11.49;100.00;95623.44;5015715;28;20398;-49
2023/05/24 06:14:56;;;;;;;;;;;16.10;63.70;;;11.51;100.00;95629.31;5015648;28;19956;-49
2023/05/24 06:17:23;;;;;;;;;;;16.10;63.80;;;11.42;100.00;95628.25;5015323;28;20276;-49
2023/05/24 06:19:52;;;;;;;;;;;16.10;63.80;;;11.47;100.00;95620.25;5015866;28;20000;-47
2023/05/24 06:22:18;;;;;;;;;;;16.00;63.80;;;11.40;100.00;95625.03;5024987;28;19924;-47
2023/05/24 06:24:45;;;;;;;;;;;16.10;63.80;;;11.40;100.00;95635.72;5018897;28;19916;-49
2023/05/24 06:27:10;;;;;;;;;;;16.10;63.80;;;11.38;100.00;95626.41;5020697;28;19908;-51
2023/05/24 06:29:37;;;;;;;;;;;16.10;63.80;;;11.35;100.00;95622.41;5018490;28;19935;-49
2023/05/24 06:32:03;;;;;;;;;;;16.20;63.70;;;11.34;100.00;95616.28;5015114;28;19917;-47
2023/05/24 06:34:29;;;;;;;;;;;16.20;63.50;;;11.38;100.00;95629.88;5027590;28;20390;-47
2023/05/24 06:36:55;;;;;;;;;;;16.30;63.50;;;11.38;100.00;95624.53;5025353;28;19909;-47
2023/05/24 06:39:21;;;;;;;;;;;16.40;63.30;;;11.52;100.00;95630.13;5022878;28;19924;-46
2023/05/24 06:41:49;;;;;;;;;;;16.50;63.20;;;11.52;100.00;95624.78;5024558;28;19909;-47
2023/05/24 06:44:16;;;;;;;;;;;16.70;64.00;;;11.60;100.00;95629.56;5032629;28;20458;-48
2023/05/24 06:46:42;;;;;;;;;;;16.70;62.90;;;11.71;100.00;95638.34;5022895;28;19920;-52
2023/05/24 06:49:08;;;;;;;;;;;16.90;62.90;;;11.55;100.00;95635.69;5032914;28;19908;-46
2023/05/24 06:51:33;;;;;;;;;;;17.00;62.70;;;11.72;100.00;95635.44;5034096;28;20358;-48
2023/05/24 06:53:59;;;;;;;;;;;17.10;62.50;;;11.87;100.00;95642.59;5021009;28;19908;-51
2023/05/24 06:56:25;;;;;;;;;;;17.20;62.40;;;12.03;100.00;95643.38;5034615;28;20050;-51
2023/05/24 06:58:51;;;;;;;;;;;17.30;62.50;;;12.07;100.00;95647.13;5020291;28;20003;-49
2023/05/24 07:01:17;;;;;;;;;;;17.30;62.50;;;12.12;100.00;95648.94;5034197;28;19931;-46
2023/05/24 07:03:43;;;;;;;;;;;17.30;62.50;;;12.09;100.00;95646.81;5033663;28;19917;-47
2023/05/24 07:06:12;;;;;;;;;;;17.20;62.40;;;12.07;100.00;95647.13;5034590;28;19909;-46
2023/05/24 07:08:41;;;;;;;;;;;17.20;62.50;;;11.93;100.00;95651.41;5032478;28;19913;-49
2023/05/24 07:11:08;;;;;;;;;;;17.10;62.40;;;11.80;100.00;95653.53;5047143;28;19959;-48
2023/05/24 07:13:34;;;;;;;;;;;17.10;62.40;;;11.81;100.00;95649.00;5049487;28;19916;-50
2023/05/24 07:16:00;;;;;;;;;;;17.00;62.40;;;11.77;100.00;95659.41;5020876;28;19913;-49
2023/05/24 07:18:26;;;;;;;;;;;17.00;62.40;;;11.78;100.00;95654.88;5020440;28;19909;-49
2023/05/24 07:20:53;;;;;;;;;;;17.00;62.40;;;11.83;100.00;95657.53;5030308;28;19919;-47
2023/05/24 07:23:19;;;;;;;;;;;17.00;62.40;;;11.85;100.00;95660.00;5020629;28;20375;-47
2023/05/24 07:25:45;;;;;;;;;;;17.10;62.40;;;11.88;100.00;95657.56;5034222;28;19979;-51
2023/05/24 07:28:13;;;;;;;;;;;17.10;62.30;;;11.97;100.00;95663.13;5018807;28;19909;-49
2023/05/24 07:30:38;;;;;;;;;;;17.10;62.20;;;12.01;100.00;95662.34;5026834;28;19915;-47
2023/05/24 07:33:04;;;;;;;;;;;17.10;62.20;;;12.05;100.00;95665.25;5028251;28;19913;-47
2023/05/24 07:35:31;;;;;;;;;;;17.20;62.30;;;12.11;100.00;95661.50;5014092;28;19909;-47
2023/05/24 07:37:57;;;;;;;;;;;17.20;62.30;;;12.24;100.00;95657.47;5033327;28;19916;-47
2023/05/24 07:40:24;;;;;;;;;;;17.30;62.20;;;12.40;100.00;95661.66;5030046;28;19917;-47
2023/05/24 07:42:50;;;;;;;;;;;17.50;62.10;;;12.45;100.00;95658.19;5033519;28;19912;-46
2023/05/24 07:45:16;;;;;;;;;;;17.70;61.90;;;12.49;100.00;95659.22;5026817;28;20359;-48
2023/05/24 07:47:41;;;;;;;;;;;17.70;61.60;;;12.44;100.00;95661.91;5019785;28;19913;-49
2023/05/24 07:50:08;;;;;;;;;;;17.70;61.50;;;12.55;100.00;95657.34;5033581;28;19909;-47
2023/05/24 07:52:34;;;;;;;;;;;17.80;61.50;;;12.57;100.00;95660.53;5023260;28;19909;-47
2023/05/24 07:55:00;;;;;;;;;;;17.80;61.40;;;12.47;100.00;95653.34;5033808;28;19958;-47
2023/05/24 07:57:25;;;;;;;;;;;17.90;62.10;;;12.44;100.00;95654.72;5024691;28;19917;-53
2023/05/24 07:59:51;;;;;;;;;;;17.90;61.90;;;12.42;100.00;95659.53;5025852;28;19940;-47
2023/05/24 08:02:17;;;;;;;;;;;17.80;61.00;;;12.52;100.00;95658.69;5032897;28;19955;-49
2023/05/24 08:04:43;;;;;;;;;;;17.80;61.80;;;12.39;100.00;95657.41;5031912;28;19913;-47
2023/05/24 08:07:09;;;;;;;;;;;17.80;60.90;;;12.41;100.00;95657.94;5033097;28;20011;-50
2023/05/24 08:09:36;;;;;;;;;;;17.70;60.90;;;12.31;100.00;95667.84;5023903;28;19909;-48
2023/05/24 08:12:07;;;;;;;;;;;17.70;60.90;;;12.31;100.00;95657.16;5013165;28;19944;-47
2023/05/24 08:14:33;;;;;;;;;;;17.70;60.80;;;12.29;100.00;95667.34;5013045;28;19913;-50
2023/05/24 08:17:02;;;;;;;;;;;17.70;61.30;;;12.27;100.00;95659.59;5026653;28;20375;-48
2023/05/24 08:19:34;;;;;;;;;;;17.60;60.80;;;12.29;100.00;95664.66;5013185;28;20302;-46
2023/05/24 08:22:03;;;;;;;;;;;17.60;60.70;;;12.25;100.00;95662.53;5016063;28;19917;-47
2023/05/24 08:24:30;;;;;;;;;;;17.50;60.80;;;12.29;100.00;95667.34;5010900;28;19913;-47
2023/05/24 08:26:56;;;;;;;;;;;17.40;60.80;;;12.26;100.00;95669.47;5014599;28;20030;-49
2023/05/24 08:29:22;;;;;;;;;;;17.40;60.90;;;12.13;100.00;95655.91;5021237;28;20350;-51
2023/05/24 08:31:48;;;;;;;;;;;17.30;60.90;;;11.93;100.00;95665.56;5012255;28;19932;-47
2023/05/24 08:34:14;;;;;;;;;;;17.30;60.80;;;11.90;100.00;95668.75;5011134;28;19909;-48
2023/05/24 08:36:42;;;;;;;;;;;17.20;60.70;;;11.94;100.00;95663.69;5012349;28;20000;-47
2023/05/24 08:39:09;;;;;;;;;;;17.30;60.70;;;11.91;100.00;95658.88;5038976;23;20451;-54
2023/05/24 08:41:37;;;;;;;;;;;17.50;60.60;;;12.00;100.00;95652.75;5031583;28;19917;-55
2023/05/24 08:44:07;;;;;;;;;;;17.60;60.40;;;12.06;100.00;95650.84;5032336;28;20011;-51
2023/05/24 08:46:37;;;;;;;;;;;17.60;60.30;;;12.05;100.00;95654.59;5028951;28;19940;-54
2023/05/24 08:49:04;;;;;;;;;;;17.80;60.10;;;12.17;100.00;95652.41;5046514;28;19975;-53
2023/05/24 08:51:30;;;;;;;;;;;17.90;60.00;;;12.29;99.62;95653.97;5014805;28;19909;-56
2023/05/24 08:54:00;;;;;;;;;;;18.00;59.80;;;12.33;98.97;95660.38;5023332;28;19909;-51
2023/05/24 08:56:30;;;;;;;;;;;18.20;59.70;;;12.46;98.48;95667.78;5022597;28;19909;-55
2023/05/24 08:58:55;;;;;;;;;;;18.40;59.60;;;12.40;97.22;95667.00;5010794;28;19916;-55
2023/05/24 09:01:24;;;;;;;;;;;18.40;59.40;;;12.52;96.21;95681.94;5012523;28;19908;-54
2023/05/24 09:03:51;;;;;;;;;;;18.40;59.40;;;12.56;97.48;95680.28;5003690;28;20438;-50
2023/05/24 09:06:18;;;;;;;;;;;18.30;59.30;;;12.74;95.10;95685.81;5004555;28;19959;-52
2023/05/24 09:08:45;;;;;;;;;;;18.30;59.40;;;12.71;94.43;95691.72;5011665;28;19916;-56
2023/05/24 09:11:10;;;;;;;;;;;18.30;59.40;;;12.54;94.78;95695.81;5012627;28;19958;-55
2023/05/24 09:13:37;;;;;;;;;;;18.20;59.40;;;12.54;95.23;95701.97;5012565;28;20275;-56
2023/05/24 09:16:06;;;;;;;;;;;18.10;59.40;;;12.67;94.55;95703.25;5026406;28;19909;-56
2023/05/24 09:18:32;;;;;;;;;;;18.00;59.50;;;12.57;94.52;95704.09;5027342;28;19909;-55
2023/05/24 09:20:57;;;;;;;;;;;17.90;60.10;;;12.50;94.60;95706.22;5010662;28;20039;-55
2023/05/24 09:23:26;;;;;;;;;;;17.80;59.50;;;12.54;94.83;95712.66;5025416;28;19913;-54
2023/05/24 09:25:51;;;;;;;;;;;17.70;59.50;;;12.55;94.41;95719.59;5012588;28;19946;-55
2023/05/24 09:28:20;;;;;;;;;;;17.70;59.60;;;12.53;93.50;95710.22;5010840;28;19909;-52
2023/05/24 09:31:09;;;;;;;;;;;17.60;60.20;;;12.32;92.36;95718.34;5012082;28;19913;-53
2023/05/24 09:33:35;;;;;;;;;;;17.60;59.60;;;12.39;93.95;95715.38;5003533;28;19916;-54
2023/05/24 09:36:05;;;;;;;;;;;17.60;59.50;;;12.28;91.70;95711.91;5007770;28;20363;-51
2023/05/24 09:38:32;;;;;;;;;;;17.60;59.40;;;12.20;92.71;95715.97;5010576;28;20363;-54
2023/05/24 09:41:09;;;;;;;;;;;17.70;59.30;;;12.19;93.53;95717.03;5008581;28;19915;-55
2023/05/24 09:43:48;;;;;;;;;;;17.60;59.20;;;12.23;93.90;95717.28;5011877;28;20450;-53
2023/05/24 09:46:21;;;;;;;;;;;17.50;59.20;;;12.22;93.32;95723.69;4998930;28;19916;-55
2023/05/24 09:49:05;;;;;;;;;;;17.50;59.20;;;12.37;93.59;95712.16;5012048;28;19917;-53
2023/05/24 09:51:36;;;;;;;;;;;17.60;59.20;;;12.38;93.06;95722.59;5003027;28;20372;-51
2023/05/24 09:54:02;;;;;;;;;;;17.60;59.20;;;12.41;93.91;95706.03;5010988;28;19909;-55
2023/05/24 09:56:31;;;;;;;;;;;17.60;59.20;;;12.46;93.11;95703.31;5011997;28;20016;-53
2023/05/24 09:58:57;;;;;;;;;;;17.70;59.20;;;12.31;94.28;95714.03;5011520;28;19935;-50
2023/05/24 10:01:25;;;;;;;;;;;17.70;59.10;;;12.18;95.50;95712.75;5011723;28;19913;-53
2023/05/24 10:03:53;;;;;;;;;;;17.60;59.00;;;12.25;94.48;95709.78;5010223;28;19936;-53
2023/05/24 10:06:20;;;;;;;;;;;17.70;59.00;;;12.26;94.06;95709.53;5011790;28;19971;-49
2023/05/24 10:08:50;;;;;;;;;;;17.70;59.00;;;12.29;95.92;95716.22;5025876;28;19956;-52
2023/05/24 10:15:10;;;;;;;;;;;17.80;58.90;;;12.28;91.74;95703.91;4904811;29;19915;-53
2023/05/24 10:17:35;;;;;;;;;;;17.90;58.80;;;12.25;91.47;95710.63;4928644;29;19960;-53
2023/05/24 10:20:01;;;;;;;;;;;17.90;58.60;;;12.26;92.59;95712.19;5001113;28;19944;-53
2023/05/24 10:22:27;;;;;;;;;;;17.90;58.60;;;12.21;90.62;95717.53;5025850;28;20360;-53
2023/05/24 10:24:58;;;;;;;;;;;17.80;58.50;;;12.24;91.75;95717.00;5025207;28;20001;-48
2023/05/24 10:27:30;;;;;;;;;;;17.80;58.40;;;12.22;91.36;95713.00;5018595;28;19913;-46
2023/05/24 10:30:06;;;;;;;;;;;17.80;58.40;;;12.22;91.03;95710.31;5010762;28;19913;-47
2023/05/24 10:32:44;;;;;;;;;;;17.80;58.50;;;12.26;90.85;95704.19;5011408;28;19962;-52
2023/05/24 10:35:13;;;;;;;;;;;17.70;58.50;;;12.27;90.29;95710.31;5016551;28;19908;-52
2023/05/24 10:37:41;;;;;;;;;;;17.70;58.40;;;12.24;91.58;95710.88;5011373;28;19909;-46
2023/05/24 10:40:15;;;;;;;;;;;17.70;58.50;;;12.37;92.34;95717.50;5000236;28;19944;-47
2023/05/24 10:42:44;;;;;;;;;;;17.70;58.50;;;12.41;91.07;95713.22;5024169;28;19948;-48
2023/05/24 10:45:38;;;;;;;;;;;17.70;58.50;;;12.47;91.53;95712.94;5010509;28;19916;-47
2023/05/24 10:48:12;;;;;;;;;;;17.70;58.50;;;12.41;90.42;95719.38;5010860;28;20329;-47
2023/05/24 10:50:40;;;;;;;;;;;17.60;58.50;;;12.49;90.54;95723.34;5011754;28;19913;-47
2023/05/24 10:53:15;;;;;;;;;;;17.60;58.50;;;12.54;92.18;95718.00;5010264;28;20333;-48
2023/05/24 10:55:59;;;;;;;;;;;17.60;58.60;;;12.51;90.48;95718.53;5014895;28;20000;-46
2023/05/24 10:59:04;;;;;;;;;;;17.60;58.60;;;12.57;91.70;95719.31;5013772;28;19913;-47
2023/05/24 11:01:32;;;;;;;;;;;17.50;58.50;;;12.52;92.01;95722.00;5006553;28;20286;-47
2023/05/24 11:04:35;;;;;;;;;;;17.50;58.50;;;12.49;91.82;95715.31;5018308;28;19935;-49
2023/05/24 11:07:03;;;;;;;;;;;17.50;58.40;;;12.44;91.92;95726.03;5002782;28;20267;-48
2023/05/24 11:09:30;;;;;;;;;;;17.50;58.40;;;12.47;92.65;95726.31;5024464;28;19916;-48
2023/05/24 11:12:07;;;;;;;;;;;17.50;58.40;;;12.42;91.53;95726.31;5014002;28;19909;-47
2023/05/24 11:14:38;;;;;;;;;;;17.50;58.40;;;12.30;91.63;95730.34;5016355;28;19987;-52
2023/05/24 11:17:08;;;;;;;;;;;17.50;58.40;;;12.20;92.13;95720.50;5013028;28;19909;-47
2023/05/24 11:19:37;;;;;;;;;;;17.50;58.30;;;12.08;92.37;95720.78;5013520;28;20380;-47